Witaj ~guest, łącznie mamy 366 pytań, w tym zatwierdzonych: 208, oczekujących na akceptację: 144, podlegających dyskusji: 14, zaproponuj pytanie.
Wpis

Tabela statystyczna

Miejsce Użytkownik Wynik IP Data rozwiązania
15061. mdco 6/15 82.177.*.* 14 lat temu, 28.08.2007
15062. Athlan 13/15 88.156.*.* 14 lat temu, 28.08.2007
15063. koodlaty 5/15 195.136.*.* 14 lat temu, 28.08.2007
15064. lay0 6/15 82.177.*.* 14 lat temu, 28.08.2007
15065. omnibus 9/15 80.51.*.* 14 lat temu, 28.08.2007
15066. explorer 1/15 195.205.*.* 14 lat temu, 28.08.2007
15067. szen 4/15 89.76.*.* 14 lat temu, 28.08.2007
15068. ner0 7/15 83.14.*.* 14 lat temu, 28.08.2007
15069. Firkrag 8/15 87.205.*.* 14 lat temu, 28.08.2007
15070. kyob 6/15 195.116.*.* 14 lat temu, 27.08.2007
15071. afr0man 8/15 83.30.*.* 14 lat temu, 27.08.2007
15072. blum1 6/15 81.219.*.* 14 lat temu, 27.08.2007
15073. snapshot 5/15 83.27.*.* 14 lat temu, 27.08.2007
15074. shn 3/15 83.7.*.* 14 lat temu, 27.08.2007
15075. jafet 6/15 88.156.*.* 14 lat temu, 27.08.2007
15076. terabit 5/15 83.16.*.* 14 lat temu, 27.08.2007
15077. puder 7/15 88.108.*.* 14 lat temu, 27.08.2007
15078. bacca 8/15 88.108.*.* 14 lat temu, 27.08.2007
15079. Speed666 6/15 89.174.*.* 14 lat temu, 27.08.2007
15080. wojtas1 6/15 83.8.*.* 14 lat temu, 27.08.2007
15081. mysz 11/15 217.153.*.* 14 lat temu, 27.08.2007
15082. KRECiK00 10/15 83.168.*.* 14 lat temu, 27.08.2007
15083. Diabl0 9/15 87.206.*.* 14 lat temu, 27.08.2007
15084. google13 10/15 87.105.*.* 14 lat temu, 27.08.2007
15085. silver 6/15 83.28.*.* 14 lat temu, 27.08.2007
15086. wojwoj 4/15 89.77.*.* 14 lat temu, 27.08.2007
15087. sandmann 5/15 83.144.*.* 14 lat temu, 27.08.2007
15088. Largo 2/15 62.233.*.* 14 lat temu, 27.08.2007
15089. TomASS 7/15 83.27.*.* 14 lat temu, 27.08.2007
15090. jjkk 5/15 80.50.*.* 14 lat temu, 27.08.2007
«12...502503504505506»
Wszystkie pytania i odpowiedzi są własnością serwisu php.pl, ich kopiowanie bez zgody administracji jest objęte ochroną prawną.